sensor_id;sensor_type;location;lat;lon;timestamp;temperature;humidity
72591;SHT31;60625;51.212;5.952;2022-11-15T00:01:54;9.42;80.61
72591;SHT31;60625;51.212;5.952;2022-11-15T00:07:13;9.47;80.83
72591;SHT31;60625;51.212;5.952;2022-11-15T00:12:33;9.50;81.00
72591;SHT31;60625;51.212;5.952;2022-11-15T00:17:52;9.52;81.18
72591;SHT31;60625;51.212;5.952;2022-11-15T00:23:11;9.54;81.28
72591;SHT31;60625;51.212;5.952;2022-11-15T00:28:30;9.56;81.39
72591;SHT31;60625;51.212;5.952;2022-11-15T00:33:50;9.58;81.51
72591;SHT31;60625;51.212;5.952;2022-11-15T00:39:09;9.60;81.74
72591;SHT31;60625;51.212;5.952;2022-11-15T00:44:29;9.61;81.79
72591;SHT31;60625;51.212;5.952;2022-11-15T00:49:48;9.63;81.92
72591;SHT31;60625;51.212;5.952;2022-11-15T00:55:08;9.65;82.04
72591;SHT31;60625;51.212;5.952;2022-11-15T01:00:33;9.68;82.07
72591;SHT31;60625;51.212;5.952;2022-11-15T01:05:53;9.68;82.21
72591;SHT31;60625;51.212;5.952;2022-11-15T01:11:12;9.70;82.39
72591;SHT31;60625;51.212;5.952;2022-11-15T01:16:32;9.73;82.52
72591;SHT31;60625;51.212;5.952;2022-11-15T01:21:52;9.75;82.74
72591;SHT31;60625;51.212;5.952;2022-11-15T01:27:11;9.79;82.94
72591;SHT31;60625;51.212;5.952;2022-11-15T01:32:30;9.82;83.25
72591;SHT31;60625;51.212;5.952;2022-11-15T01:37:49;9.85;83.54
72591;SHT31;60625;51.212;5.952;2022-11-15T01:48:52;9.90;83.71
72591;SHT31;60625;51.212;5.952;2022-11-15T01:54:14;9.93;83.93
72591;SHT31;60625;51.212;5.952;2022-11-15T01:59:37;9.97;84.03
72591;SHT31;60625;51.212;5.952;2022-11-15T02:04:59;10.00;84.19
72591;SHT31;60625;51.212;5.952;2022-11-15T02:10:19;10.03;84.30
72591;SHT31;60625;51.212;5.952;2022-11-15T02:15:49;10.06;84.36
72591;SHT31;60625;51.212;5.952;2022-11-15T02:33:20;10.20;84.85
72591;SHT31;60625;51.212;5.952;2022-11-15T02:38:32;10.26;85.09
72591;SHT31;60625;51.212;5.952;2022-11-15T02:44:07;10.33;85.26
72591;SHT31;60625;51.212;5.952;2022-11-15T02:49:36;10.38;85.38
72591;SHT31;60625;51.212;5.952;2022-11-15T02:54:59;10.44;85.50
72591;SHT31;60625;51.212;5.952;2022-11-15T03:00:20;10.49;85.66
72591;SHT31;60625;51.212;5.952;2022-11-15T03:05:57;10.55;85.83
72591;SHT31;60625;51.212;5.952;2022-11-15T03:11:33;10.60;85.89
72591;SHT31;60625;51.212;5.952;2022-11-15T03:17:16;10.65;86.13
72591;SHT31;60625;51.212;5.952;2022-11-15T03:22:42;10.72;86.36
72591;SHT31;60625;51.212;5.952;2022-11-15T03:28:05;10.78;86.58
72591;SHT31;60625;51.212;5.952;2022-11-15T03:33:28;10.86;86.99
72591;SHT31;60625;51.212;5.952;2022-11-15T03:38:48;10.91;87.19
72591;SHT31;60625;51.212;5.952;2022-11-15T03:49:57;11.04;87.61
72591;SHT31;60625;51.212;5.952;2022-11-15T03:55:26;11.08;87.69
72591;SHT31;60625;51.212;5.952;2022-11-15T04:00:46;11.12;87.72
72591;SHT31;60625;51.212;5.952;2022-11-15T04:06:05;11.15;87.66
72591;SHT31;60625;51.212;5.952;2022-11-15T04:11:25;11.17;87.51
72591;SHT31;60625;51.212;5.952;2022-11-15T04:16:44;11.18;87.44
72591;SHT31;60625;51.212;5.952;2022-11-15T04:22:03;11.21;87.50
72591;SHT31;60625;51.212;5.952;2022-11-15T04:27:41;11.23;87.55
72591;SHT31;60625;51.212;5.952;2022-11-15T04:33:00;11.24;87.60
72591;SHT31;60625;51.212;5.952;2022-11-15T04:38:19;11.26;87.60
72591;SHT31;60625;51.212;5.952;2022-11-15T04:43:39;11.27;87.57
72591;SHT31;60625;51.212;5.952;2022-11-15T04:48:58;11.28;87.51
72591;SHT31;60625;51.212;5.952;2022-11-15T04:54:17;11.28;87.53
72591;SHT31;60625;51.212;5.952;2022-11-15T04:59:36;11.28;87.54
72591;SHT31;60625;51.212;5.952;2022-11-15T05:04:56;11.30;87.47
72591;SHT31;60625;51.212;5.952;2022-11-15T05:10:15;11.30;87.49
72591;SHT31;60625;51.212;5.952;2022-11-15T05:15:35;11.31;87.59
72591;SHT31;60625;51.212;5.952;2022-11-15T05:20:54;11.34;87.70
72591;SHT31;60625;51.212;5.952;2022-11-15T05:26:17;11.35;87.70
72591;SHT31;60625;51.212;5.952;2022-11-15T05:31:39;11.37;87.68
72591;SHT31;60625;51.212;5.952;2022-11-15T05:37:00;11.40;87.66
72591;SHT31;60625;51.212;5.952;2022-11-15T05:42:19;11.41;87.60
72591;SHT31;60625;51.212;5.952;2022-11-15T05:47:38;11.43;87.60
72591;SHT31;60625;51.212;5.952;2022-11-15T05:52:58;11.45;87.62
72591;SHT31;60625;51.212;5.952;2022-11-15T05:58:19;11.47;87.72
72591;SHT31;60625;51.212;5.952;2022-11-15T06:03:39;11.52;88.16
72591;SHT31;60625;51.212;5.952;2022-11-15T06:08:59;11.57;88.43
72591;SHT31;60625;51.212;5.952;2022-11-15T06:14:18;11.60;88.50
72591;SHT31;60625;51.212;5.952;2022-11-15T06:19:37;11.64;88.97
72591;SHT31;60625;51.212;5.952;2022-11-15T06:24:56;11.66;89.26
72591;SHT31;60625;51.212;5.952;2022-11-15T06:30:15;11.65;88.65
72591;SHT31;60625;51.212;5.952;2022-11-15T06:35:35;11.61;88.03
72591;SHT31;60625;51.212;5.952;2022-11-15T06:41:00;11.56;87.78
72591;SHT31;60625;51.212;5.952;2022-11-15T06:46:21;11.52;87.39
72591;SHT31;60625;51.212;5.952;2022-11-15T06:51:40;11.47;87.09
72591;SHT31;60625;51.212;5.952;2022-11-15T06:56:59;11.44;86.82
72591;SHT31;60625;51.212;5.952;2022-11-15T07:02:18;11.41;86.83
72591;SHT31;60625;51.212;5.952;2022-11-15T07:07:38;11.37;86.81
72591;SHT31;60625;51.212;5.952;2022-11-15T07:12:58;11.35;86.82
72591;SHT31;60625;51.212;5.952;2022-11-15T07:18:17;11.32;86.76
72591;SHT31;60625;51.212;5.952;2022-11-15T07:23:37;11.31;86.70
72591;SHT31;60625;51.212;5.952;2022-11-15T07:28:59;11.30;86.69
72591;SHT31;60625;51.212;5.952;2022-11-15T07:34:18;11.28;86.69
72591;SHT31;60625;51.212;5.952;2022-11-15T07:39:38;11.27;86.70
72591;SHT31;60625;51.212;5.952;2022-11-15T07:44:58;11.29;86.70
72591;SHT31;60625;51.212;5.952;2022-11-15T07:50:17;11.31;86.70
72591;SHT31;60625;51.212;5.952;2022-11-15T07:55:39;11.32;86.71
72591;SHT31;60625;51.212;5.952;2022-11-15T08:01:02;11.33;86.68
72591;SHT31;60625;51.212;5.952;2022-11-15T08:06:23;11.34;86.45
72591;SHT31;60625;51.212;5.952;2022-11-15T08:11:42;11.35;86.24
72591;SHT31;60625;51.212;5.952;2022-11-15T08:17:01;11.36;86.01
72591;SHT31;60625;51.212;5.952;2022-11-15T08:22:21;11.38;85.81
72591;SHT31;60625;51.212;5.952;2022-11-15T08:27:40;11.40;85.64
72591;SHT31;60625;51.212;5.952;2022-11-15T08:32:59;11.47;85.51
72591;SHT31;60625;51.212;5.952;2022-11-15T08:38:18;11.53;85.36
72591;SHT31;60625;51.212;5.952;2022-11-15T08:43:37;11.63;85.18
72591;SHT31;60625;51.212;5.952;2022-11-15T08:48:57;11.76;84.71
72591;SHT31;60625;51.212;5.952;2022-11-15T08:54:16;11.95;84.16
72591;SHT31;60625;51.212;5.952;2022-11-15T08:59:36;12.12;83.52
72591;SHT31;60625;51.212;5.952;2022-11-15T09:04:55;12.18;82.80
72591;SHT31;60625;51.212;5.952;2022-11-15T09:10:15;12.21;81.61
72591;SHT31;60625;51.212;5.952;2022-11-15T09:15:34;12.26;81.22
72591;SHT31;60625;51.212;5.952;2022-11-15T09:20:55;12.37;79.76
72591;SHT31;60625;51.212;5.952;2022-11-15T09:26:18;12.44;78.75
72591;SHT31;60625;51.212;5.952;2022-11-15T09:31:37;12.53;77.83
72591;SHT31;60625;51.212;5.952;2022-11-15T09:36:56;12.61;76.83
72591;SHT31;60625;51.212;5.952;2022-11-15T09:48:33;12.91;74.96
72591;SHT31;60625;51.212;5.952;2022-11-15T09:54:11;13.06;74.61
72591;SHT31;60625;51.212;5.952;2022-11-15T09:59:44;13.23;73.79
72591;SHT31;60625;51.212;5.952;2022-11-15T10:04:56;13.41;72.90
72591;SHT31;60625;51.212;5.952;2022-11-15T10:15:26;13.66;70.93
72591;SHT31;60625;51.212;5.952;2022-11-15T10:20:27;13.74;70.64
72591;SHT31;60625;51.212;5.952;2022-11-15T10:25:41;13.98;70.22
72591;SHT31;60625;51.212;5.952;2022-11-15T10:30:45;14.14;69.15
72591;SHT31;60625;51.212;5.952;2022-11-15T10:35:48;14.27;68.31
72591;SHT31;60625;51.212;5.952;2022-11-15T10:41:10;14.37;67.67
72591;SHT31;60625;51.212;5.952;2022-11-15T10:46:21;14.39;67.19
72591;SHT31;60625;51.212;5.952;2022-11-15T10:51:26;14.40;67.42
72591;SHT31;60625;51.212;5.952;2022-11-15T10:56:28;14.47;66.60
72591;SHT31;60625;51.212;5.952;2022-11-15T11:01:29;14.47;66.04
72591;SHT31;60625;51.212;5.952;2022-11-15T11:06:55;14.45;65.86
72591;SHT31;60625;51.212;5.952;2022-11-15T11:12:00;14.40;65.15
72591;SHT31;60625;51.212;5.952;2022-11-15T11:17:13;14.46;65.19
72591;SHT31;60625;51.212;5.952;2022-11-15T11:22:42;14.61;64.63
72591;SHT31;60625;51.212;5.952;2022-11-15T11:39:42;15.22;63.13
72591;SHT31;60625;51.212;5.952;2022-11-15T11:45:18;15.21;62.48
72591;SHT31;60625;51.212;5.952;2022-11-15T11:50:42;15.10;61.94
72591;SHT31;60625;51.212;5.952;2022-11-15T11:55:47;15.10;61.98
72591;SHT31;60625;51.212;5.952;2022-11-15T12:00:55;15.10;62.10
72591;SHT31;60625;51.212;5.952;2022-11-15T12:11:35;15.21;60.88
72591;SHT31;60625;51.212;5.952;2022-11-15T12:17:00;15.30;60.38
72591;SHT31;60625;51.212;5.952;2022-11-15T12:22:18;15.40;59.38
72591;SHT31;60625;51.212;5.952;2022-11-15T12:32:55;15.52;58.11
72591;SHT31;60625;51.212;5.952;2022-11-15T12:37:59;15.39;58.29
72591;SHT31;60625;51.212;5.952;2022-11-15T12:43:04;15.32;58.66
72591;SHT31;60625;51.212;5.952;2022-11-15T12:53:40;15.54;57.72
72591;SHT31;60625;51.212;5.952;2022-11-15T12:58:42;15.43;58.00
72591;SHT31;60625;51.212;5.952;2022-11-15T13:25:15;15.06;60.46
72591;SHT31;60625;51.212;5.952;2022-11-15T13:30:31;15.01;60.60
72591;SHT31;60625;51.212;5.952;2022-11-15T13:35:33;14.98;60.97
72591;SHT31;60625;51.212;5.952;2022-11-15T13:40:40;14.98;61.33
72591;SHT31;60625;51.212;5.952;2022-11-15T13:45:41;14.99;61.67
72591;SHT31;60625;51.212;5.952;2022-11-15T13:50:42;14.99;61.71
72591;SHT31;60625;51.212;5.952;2022-11-15T13:55:42;14.97;62.08
72591;SHT31;60625;51.212;5.952;2022-11-15T14:00:44;14.91;62.38
72591;SHT31;60625;51.212;5.952;2022-11-15T14:06:01;14.81;62.83
72591;SHT31;60625;51.212;5.952;2022-11-15T14:11:17;14.68;63.42
72591;SHT31;60625;51.212;5.952;2022-11-15T14:16:20;14.59;63.43
72591;SHT31;60625;51.212;5.952;2022-11-15T14:21:21;14.54;63.83
72591;SHT31;60625;51.212;5.952;2022-11-15T14:31:30;14.46;64.40
72591;SHT31;60625;51.212;5.952;2022-11-15T14:36:31;14.44;64.79
72591;SHT31;60625;51.212;5.952;2022-11-15T14:41:34;14.40;65.45
72591;SHT31;60625;51.212;5.952;2022-11-15T14:46:39;14.36;65.52
72591;SHT31;60625;51.212;5.952;2022-11-15T14:51:39;14.32;65.81
72591;SHT31;60625;51.212;5.952;2022-11-15T14:56:39;14.26;65.92
72591;SHT31;60625;51.212;5.952;2022-11-15T15:01:41;14.18;66.02
72591;SHT31;60625;51.212;5.952;2022-11-15T15:06:42;14.13;66.08
72591;SHT31;60625;51.212;5.952;2022-11-15T15:11:42;14.08;66.16
72591;SHT31;60625;51.212;5.952;2022-11-15T15:16:43;14.02;66.72
72591;SHT31;60625;51.212;5.952;2022-11-15T15:21:44;13.93;67.14
72591;SHT31;60625;51.212;5.952;2022-11-15T15:26:44;13.84;67.42
72591;SHT31;60625;51.212;5.952;2022-11-15T15:31:45;13.77;67.45
72591;SHT31;60625;51.212;5.952;2022-11-15T15:36:45;13.73;67.58
72591;SHT31;60625;51.212;5.952;2022-11-15T15:41:46;13.69;67.76
72591;SHT31;60625;51.212;5.952;2022-11-15T15:46:46;13.68;67.89
72591;SHT31;60625;51.212;5.952;2022-11-15T15:51:47;13.65;68.11
72591;SHT31;60625;51.212;5.952;2022-11-15T15:56:47;13.67;67.92
72591;SHT31;60625;51.212;5.952;2022-11-15T16:01:48;13.68;68.14
72591;SHT31;60625;51.212;5.952;2022-11-15T16:06:48;13.71;68.21
72591;SHT31;60625;51.212;5.952;2022-11-15T16:11:52;13.71;68.52
72591;SHT31;60625;51.212;5.952;2022-11-15T16:16:52;13.70;68.50
72591;SHT31;60625;51.212;5.952;2022-11-15T16:21:53;13.73;68.46
72591;SHT31;60625;51.212;5.952;2022-11-15T16:26:53;13.73;69.39
72591;SHT31;60625;51.212;5.952;2022-11-15T16:31:54;13.68;70.38
72591;SHT31;60625;51.212;5.952;2022-11-15T16:36:55;13.62;71.04
72591;SHT31;60625;51.212;5.952;2022-11-15T16:41:56;13.58;71.39
72591;SHT31;60625;51.212;5.952;2022-11-15T16:46:57;13.55;72.08
72591;SHT31;60625;51.212;5.952;2022-11-15T16:52:00;13.50;72.85
72591;SHT31;60625;51.212;5.952;2022-11-15T16:57:00;13.44;73.53
72591;SHT31;60625;51.212;5.952;2022-11-15T17:02:01;13.38;74.15
72591;SHT31;60625;51.212;5.952;2022-11-15T17:07:01;13.30;74.96
72591;SHT31;60625;51.212;5.952;2022-11-15T17:12:02;13.21;75.69
72591;SHT31;60625;51.212;5.952;2022-11-15T17:17:03;13.15;76.26
72591;SHT31;60625;51.212;5.952;2022-11-15T17:22:03;13.09;76.85
72591;SHT31;60625;51.212;5.952;2022-11-15T17:27:04;13.05;77.43
72591;SHT31;60625;51.212;5.952;2022-11-15T17:32:04;12.99;77.95
72591;SHT31;60625;51.212;5.952;2022-11-15T17:37:05;12.91;78.61
72591;SHT31;60625;51.212;5.952;2022-11-15T17:42:06;12.84;78.96
72591;SHT31;60625;51.212;5.952;2022-11-15T17:47:06;12.79;79.38
72591;SHT31;60625;51.212;5.952;2022-11-15T17:52:07;12.73;79.75
72591;SHT31;60625;51.212;5.952;2022-11-15T17:57:08;12.70;79.88
72591;SHT31;60625;51.212;5.952;2022-11-15T18:02:11;12.66;80.35
72591;SHT31;60625;51.212;5.952;2022-11-15T18:07:12;12.62;80.76
72591;SHT31;60625;51.212;5.952;2022-11-15T18:12:12;12.53;81.46
72591;SHT31;60625;51.212;5.952;2022-11-15T18:17:13;12.49;81.51
72591;SHT31;60625;51.212;5.952;2022-11-15T18:22:13;12.50;81.50
72591;SHT31;60625;51.212;5.952;2022-11-15T18:27:14;12.47;81.92
72591;SHT31;60625;51.212;5.952;2022-11-15T18:32:14;12.44;82.20
72591;SHT31;60625;51.212;5.952;2022-11-15T18:37:17;12.42;82.33
72591;SHT31;60625;51.212;5.952;2022-11-15T18:42:17;12.43;82.47
72591;SHT31;60625;51.212;5.952;2022-11-15T18:47:17;12.42;82.75
72591;SHT31;60625;51.212;5.952;2022-11-15T18:52:18;12.40;82.99
72591;SHT31;60625;51.212;5.952;2022-11-15T18:57:18;12.38;83.27
72591;SHT31;60625;51.212;5.952;2022-11-15T19:02:19;12.37;83.47
72591;SHT31;60625;51.212;5.952;2022-11-15T19:07:20;12.37;83.58
72591;SHT31;60625;51.212;5.952;2022-11-15T19:12:20;12.36;83.88
72591;SHT31;60625;51.212;5.952;2022-11-15T19:17:20;12.35;84.07
72591;SHT31;60625;51.212;5.952;2022-11-15T19:22:21;12.34;84.13
72591;SHT31;60625;51.212;5.952;2022-11-15T19:27:21;12.35;84.18
72591;SHT31;60625;51.212;5.952;2022-11-15T19:32:22;12.35;84.18
72591;SHT31;60625;51.212;5.952;2022-11-15T19:37:22;12.35;84.21
72591;SHT31;60625;51.212;5.952;2022-11-15T19:42:23;12.35;84.29
72591;SHT31;60625;51.212;5.952;2022-11-15T19:47:23;12.35;84.31
72591;SHT31;60625;51.212;5.952;2022-11-15T19:52:25;12.34;84.45
72591;SHT31;60625;51.212;5.952;2022-11-15T19:57:26;12.34;84.52
72591;SHT31;60625;51.212;5.952;2022-11-15T20:02:26;12.33;84.54
72591;SHT31;60625;51.212;5.952;2022-11-15T20:07:27;12.33;84.54
72591;SHT31;60625;51.212;5.952;2022-11-15T20:12:28;12.33;84.55
72591;SHT31;60625;51.212;5.952;2022-11-15T20:17:29;12.33;84.56
72591;SHT31;60625;51.212;5.952;2022-11-15T20:22:29;12.33;84.54
72591;SHT31;60625;51.212;5.952;2022-11-15T20:27:30;12.34;84.53
72591;SHT31;60625;51.212;5.952;2022-11-15T20:32:30;12.35;84.42
72591;SHT31;60625;51.212;5.952;2022-11-15T20:37:31;12.36;84.42
72591;SHT31;60625;51.212;5.952;2022-11-15T20:42:31;12.36;84.44
72591;SHT31;60625;51.212;5.952;2022-11-15T20:47:32;12.37;84.54
72591;SHT31;60625;51.212;5.952;2022-11-15T20:52:32;12.37;84.54
72591;SHT31;60625;51.212;5.952;2022-11-15T20:57:32;12.38;84.59
72591;SHT31;60625;51.212;5.952;2022-11-15T21:02:33;12.39;84.57
72591;SHT31;60625;51.212;5.952;2022-11-15T21:07:34;12.38;84.71
72591;SHT31;60625;51.212;5.952;2022-11-15T21:12:34;12.36;84.99
72591;SHT31;60625;51.212;5.952;2022-11-15T21:17:35;12.35;85.11
72591;SHT31;60625;51.212;5.952;2022-11-15T21:22:35;12.34;85.15
72591;SHT31;60625;51.212;5.952;2022-11-15T21:27:36;12.35;85.19
72591;SHT31;60625;51.212;5.952;2022-11-15T21:32:36;12.36;85.18
72591;SHT31;60625;51.212;5.952;2022-11-15T21:37:38;12.38;85.22
72591;SHT31;60625;51.212;5.952;2022-11-15T21:42:39;12.38;85.26
72591;SHT31;60625;51.212;5.952;2022-11-15T21:47:39;12.40;85.39
72591;SHT31;60625;51.212;5.952;2022-11-15T21:52:40;12.41;85.50
72591;SHT31;60625;51.212;5.952;2022-11-15T21:57:40;12.42;85.56
72591;SHT31;60625;51.212;5.952;2022-11-15T22:02:41;12.43;85.69
72591;SHT31;60625;51.212;5.952;2022-11-15T22:07:41;12.42;85.85
72591;SHT31;60625;51.212;5.952;2022-11-15T22:12:42;12.42;86.00
72591;SHT31;60625;51.212;5.952;2022-11-15T22:17:42;12.43;86.06
72591;SHT31;60625;51.212;5.952;2022-11-15T22:22:58;12.44;86.04
72591;SHT31;60625;51.212;5.952;2022-11-15T22:27:59;12.44;86.10
72591;SHT31;60625;51.212;5.952;2022-11-15T22:32:59;12.45;86.14
72591;SHT31;60625;51.212;5.952;2022-11-15T22:38:00;12.44;86.18
72591;SHT31;60625;51.212;5.952;2022-11-15T22:43:00;12.44;86.31
72591;SHT31;60625;51.212;5.952;2022-11-15T22:48:01;12.44;86.38
72591;SHT31;60625;51.212;5.952;2022-11-15T22:53:02;12.43;86.48
72591;SHT31;60625;51.212;5.952;2022-11-15T22:58:02;12.43;86.59
72591;SHT31;60625;51.212;5.952;2022-11-15T23:03:03;12.43;86.68
72591;SHT31;60625;51.212;5.952;2022-11-15T23:08:04;12.43;86.71
72591;SHT31;60625;51.212;5.952;2022-11-15T23:13:05;12.44;86.78
72591;SHT31;60625;51.212;5.952;2022-11-15T23:18:17;12.43;86.82
72591;SHT31;60625;51.212;5.952;2022-11-15T23:23:18;12.41;86.93
72591;SHT31;60625;51.212;5.952;2022-11-15T23:28:18;12.39;86.93
72591;SHT31;60625;51.212;5.952;2022-11-15T23:33:19;12.40;86.93
72591;SHT31;60625;51.212;5.952;2022-11-15T23:38:39;12.39;86.92
72591;SHT31;60625;51.212;5.952;2022-11-15T23:43:39;12.37;86.93
72591;SHT31;60625;51.212;5.952;2022-11-15T23:48:40;12.36;87.01
72591;SHT31;60625;51.212;5.952;2022-11-15T23:53:41;12.35;87.06
72591;SHT31;60625;51.212;5.952;2022-11-15T23:58:42;12.33;87.15
